Calvert, Texas
Current Conditions -  °F | °C
As of 2:15 PM on Thursday 23 Oct 2014 (Local Time) from KLHB Reporting Station
Clear Clear  
Wind Chill: 77°   Ceiling: Unl
Heat Index: 78°   Visibility: 10mi
Dew Point: 56°   Wind: 0mph
Humidity: 49%   Direction: NA
Pressure: 30.11"   Gusts: NA
Location:  30.98°N, 96.67°W
Report Text: KLHB 231915Z AUTO 00000KT 10SM CLR 25/13 A3011 RMK AO2 T02490134
Loading
Personal Weather Stations






























Interactive Weather Map
Tropical Storm Tracking
New forecast layout! Learn more

10-Day Weather Forecast

Advertisements
Track Severe Weather on mobile